sensor_id;sensor_type;location;lat;lon;timestamp;temperature;humidity
9450;DHT22;4763;48.370;10.874;2022-10-16T00:01:05;13.60;99.90
9450;DHT22;4763;48.370;10.874;2022-10-16T00:03:33;13.60;99.90
9450;DHT22;4763;48.370;10.874;2022-10-16T00:06:01;13.50;99.90
9450;DHT22;4763;48.370;10.874;2022-10-16T00:08:28;13.60;99.90
9450;DHT22;4763;48.370;10.874;2022-10-16T00:10:59;13.50;99.90
9450;DHT22;4763;48.370;10.874;2022-10-16T00:13:26;13.50;99.90
9450;DHT22;4763;48.370;10.874;2022-10-16T00:15:55;13.40;99.90
9450;DHT22;4763;48.370;10.874;2022-10-16T00:18:22;13.40;99.90
9450;DHT22;4763;48.370;10.874;2022-10-16T00:20:49;13.40;99.90
9450;DHT22;4763;48.370;10.874;2022-10-16T00:23:17;13.40;99.90
9450;DHT22;4763;48.370;10.874;2022-10-16T00:25:44;13.40;99.90
9450;DHT22;4763;48.370;10.874;2022-10-16T00:28:11;13.40;99.90
9450;DHT22;4763;48.370;10.874;2022-10-16T00:30:38;13.40;99.90
9450;DHT22;4763;48.370;10.874;2022-10-16T00:33:04;13.40;99.90
9450;DHT22;4763;48.370;10.874;2022-10-16T00:35:31;13.40;99.90
9450;DHT22;4763;48.370;10.874;2022-10-16T00:37:58;13.40;99.90
9450;DHT22;4763;48.370;10.874;2022-10-16T00:40:26;13.40;99.90
9450;DHT22;4763;48.370;10.874;2022-10-16T00:42:53;13.40;99.90
9450;DHT22;4763;48.370;10.874;2022-10-16T00:45:20;13.40;99.90
9450;DHT22;4763;48.370;10.874;2022-10-16T00:47:48;13.40;99.90
9450;DHT22;4763;48.370;10.874;2022-10-16T00:50:22;13.40;99.90
9450;DHT22;4763;48.370;10.874;2022-10-16T00:52:51;13.40;99.90
9450;DHT22;4763;48.370;10.874;2022-10-16T00:55:19;13.40;99.90
9450;DHT22;4763;48.370;10.874;2022-10-16T00:57:48;13.30;99.90
9450;DHT22;4763;48.370;10.874;2022-10-16T01:00:18;13.30;99.90
9450;DHT22;4763;48.370;10.874;2022-10-16T01:02:51;13.30;99.90
9450;DHT22;4763;48.370;10.874;2022-10-16T01:05:17;13.30;99.90
9450;DHT22;4763;48.370;10.874;2022-10-16T01:07:51;13.30;99.90
9450;DHT22;4763;48.370;10.874;2022-10-16T01:10:27;13.30;99.90
9450;DHT22;4763;48.370;10.874;2022-10-16T01:13:00;13.30;99.90
9450;DHT22;4763;48.370;10.874;2022-10-16T01:15:31;13.30;99.90
9450;DHT22;4763;48.370;10.874;2022-10-16T01:18:03;13.30;99.90
9450;DHT22;4763;48.370;10.874;2022-10-16T01:20:35;13.40;99.90
9450;DHT22;4763;48.370;10.874;2022-10-16T01:23:10;13.40;99.90
9450;DHT22;4763;48.370;10.874;2022-10-16T01:25:59;13.40;99.90
9450;DHT22;4763;48.370;10.874;2022-10-16T01:28:36;13.40;99.90
9450;DHT22;4763;48.370;10.874;2022-10-16T01:31:05;13.40;99.90
9450;DHT22;4763;48.370;10.874;2022-10-16T01:33:35;13.40;99.90
9450;DHT22;4763;48.370;10.874;2022-10-16T01:36:09;13.40;99.90
9450;DHT22;4763;48.370;10.874;2022-10-16T01:38:38;13.40;99.90
9450;DHT22;4763;48.370;10.874;2022-10-16T01:41:09;13.40;99.90
9450;DHT22;4763;48.370;10.874;2022-10-16T01:43:42;13.40;99.90
9450;DHT22;4763;48.370;10.874;2022-10-16T01:46:10;13.40;99.90
9450;DHT22;4763;48.370;10.874;2022-10-16T01:48:39;13.30;99.90
9450;DHT22;4763;48.370;10.874;2022-10-16T01:51:09;13.30;99.90
9450;DHT22;4763;48.370;10.874;2022-10-16T01:53:39;13.30;99.90
9450;DHT22;4763;48.370;10.874;2022-10-16T01:56:08;13.20;99.90
9450;DHT22;4763;48.370;10.874;2022-10-16T01:58:40;13.20;99.90
9450;DHT22;4763;48.370;10.874;2022-10-16T02:01:09;13.10;99.90
9450;DHT22;4763;48.370;10.874;2022-10-16T02:03:39;13.10;99.90
9450;DHT22;4763;48.370;10.874;2022-10-16T02:06:07;13.10;99.90
9450;DHT22;4763;48.370;10.874;2022-10-16T02:08:34;13.10;99.90
9450;DHT22;4763;48.370;10.874;2022-10-16T02:11:01;13.00;99.90
9450;DHT22;4763;48.370;10.874;2022-10-16T02:13:32;13.00;99.90
9450;DHT22;4763;48.370;10.874;2022-10-16T02:16:01;13.00;99.90
9450;DHT22;4763;48.370;10.874;2022-10-16T02:18:28;13.10;99.90
9450;DHT22;4763;48.370;10.874;2022-10-16T02:20:59;13.10;99.90
9450;DHT22;4763;48.370;10.874;2022-10-16T02:23:36;13.10;99.90
9450;DHT22;4763;48.370;10.874;2022-10-16T02:26:07;13.10;99.90
9450;DHT22;4763;48.370;10.874;2022-10-16T02:28:39;13.10;99.90
9450;DHT22;4763;48.370;10.874;2022-10-16T02:31:10;13.10;99.90
9450;DHT22;4763;48.370;10.874;2022-10-16T02:33:39;13.10;99.90
9450;DHT22;4763;48.370;10.874;2022-10-16T02:36:07;13.10;99.90
9450;DHT22;4763;48.370;10.874;2022-10-16T02:38:34;13.10;99.90
9450;DHT22;4763;48.370;10.874;2022-10-16T02:41:04;13.10;99.90
9450;DHT22;4763;48.370;10.874;2022-10-16T02:43:31;13.00;99.90
9450;DHT22;4763;48.370;10.874;2022-10-16T02:45:59;13.10;99.90
9450;DHT22;4763;48.370;10.874;2022-10-16T02:48:27;13.10;99.90
9450;DHT22;4763;48.370;10.874;2022-10-16T02:50:54;13.10;99.90
9450;DHT22;4763;48.370;10.874;2022-10-16T02:53:20;13.10;99.90
9450;DHT22;4763;48.370;10.874;2022-10-16T02:55:47;13.10;99.90
9450;DHT22;4763;48.370;10.874;2022-10-16T02:58:14;13.10;99.90
9450;DHT22;4763;48.370;10.874;2022-10-16T03:00:41;13.10;99.90
9450;DHT22;4763;48.370;10.874;2022-10-16T03:03:07;13.20;99.90
9450;DHT22;4763;48.370;10.874;2022-10-16T03:05:35;13.10;99.90
9450;DHT22;4763;48.370;10.874;2022-10-16T03:08:03;13.20;99.90
9450;DHT22;4763;48.370;10.874;2022-10-16T03:10:30;13.20;99.90
9450;DHT22;4763;48.370;10.874;2022-10-16T03:12:56;13.20;99.90
9450;DHT22;4763;48.370;10.874;2022-10-16T03:15:23;13.20;99.90
9450;DHT22;4763;48.370;10.874;2022-10-16T03:17:51;13.10;99.90
9450;DHT22;4763;48.370;10.874;2022-10-16T03:20:18;13.20;99.90
9450;DHT22;4763;48.370;10.874;2022-10-16T03:22:46;13.20;99.90
9450;DHT22;4763;48.370;10.874;2022-10-16T03:25:12;13.20;99.90
9450;DHT22;4763;48.370;10.874;2022-10-16T03:27:39;13.20;99.90
9450;DHT22;4763;48.370;10.874;2022-10-16T03:30:07;13.20;99.90
9450;DHT22;4763;48.370;10.874;2022-10-16T03:32:34;13.20;99.90
9450;DHT22;4763;48.370;10.874;2022-10-16T03:35:01;13.20;99.90
9450;DHT22;4763;48.370;10.874;2022-10-16T03:37:28;13.20;99.90
9450;DHT22;4763;48.370;10.874;2022-10-16T03:39:56;13.20;99.90
9450;DHT22;4763;48.370;10.874;2022-10-16T03:42:24;13.20;99.90
9450;DHT22;4763;48.370;10.874;2022-10-16T03:44:51;13.20;99.90
9450;DHT22;4763;48.370;10.874;2022-10-16T03:47:17;13.20;99.90
9450;DHT22;4763;48.370;10.874;2022-10-16T03:49:47;13.30;99.90
9450;DHT22;4763;48.370;10.874;2022-10-16T03:52:14;13.30;99.90
9450;DHT22;4763;48.370;10.874;2022-10-16T03:54:40;13.40;99.90
9450;DHT22;4763;48.370;10.874;2022-10-16T03:57:08;13.30;99.90
9450;DHT22;4763;48.370;10.874;2022-10-16T03:59:35;13.30;99.90
9450;DHT22;4763;48.370;10.874;2022-10-16T04:02:02;13.30;99.90
9450;DHT22;4763;48.370;10.874;2022-10-16T04:04:29;13.30;99.90
9450;DHT22;4763;48.370;10.874;2022-10-16T04:06:55;13.30;99.90
9450;DHT22;4763;48.370;10.874;2022-10-16T04:09:22;13.30;99.90
9450;DHT22;4763;48.370;10.874;2022-10-16T04:11:49;13.30;99.90
9450;DHT22;4763;48.370;10.874;2022-10-16T04:14:17;13.30;99.90
9450;DHT22;4763;48.370;10.874;2022-10-16T04:16:44;13.30;99.90
9450;DHT22;4763;48.370;10.874;2022-10-16T04:19:11;13.30;99.90
9450;DHT22;4763;48.370;10.874;2022-10-16T04:21:39;13.30;99.90
9450;DHT22;4763;48.370;10.874;2022-10-16T04:24:05;13.30;99.90
9450;DHT22;4763;48.370;10.874;2022-10-16T04:26:32;13.30;99.90
9450;DHT22;4763;48.370;10.874;2022-10-16T04:28:59;13.30;99.90
9450;DHT22;4763;48.370;10.874;2022-10-16T04:31:27;13.30;99.90
9450;DHT22;4763;48.370;10.874;2022-10-16T04:33:54;13.30;99.90
9450;DHT22;4763;48.370;10.874;2022-10-16T04:36:21;13.30;99.90
9450;DHT22;4763;48.370;10.874;2022-10-16T04:38:48;13.30;99.90
9450;DHT22;4763;48.370;10.874;2022-10-16T04:41:14;13.30;99.90
9450;DHT22;4763;48.370;10.874;2022-10-16T04:43:41;13.30;99.90
9450;DHT22;4763;48.370;10.874;2022-10-16T04:46:08;13.20;99.90
9450;DHT22;4763;48.370;10.874;2022-10-16T04:48:37;13.20;99.90
9450;DHT22;4763;48.370;10.874;2022-10-16T04:51:04;13.20;99.90
9450;DHT22;4763;48.370;10.874;2022-10-16T04:53:30;13.20;99.90
9450;DHT22;4763;48.370;10.874;2022-10-16T04:55:57;13.10;99.90
9450;DHT22;4763;48.370;10.874;2022-10-16T04:58:27;13.10;99.90
9450;DHT22;4763;48.370;10.874;2022-10-16T05:00:54;13.00;99.90
9450;DHT22;4763;48.370;10.874;2022-10-16T05:03:21;13.00;99.90
9450;DHT22;4763;48.370;10.874;2022-10-16T05:16:49;12.80;99.90
9450;DHT22;4763;48.370;10.874;2022-10-16T05:20:15;12.80;99.90
9450;DHT22;4763;48.370;10.874;2022-10-16T05:23:41;12.80;99.90
9450;DHT22;4763;48.370;10.874;2022-10-16T05:26:42;12.80;99.90
9450;DHT22;4763;48.370;10.874;2022-10-16T05:31:30;12.80;99.90
9450;DHT22;4763;48.370;10.874;2022-10-16T05:32:38;12.80;99.90
9450;DHT22;4763;48.370;10.874;2022-10-16T05:35:47;12.70;99.90
9450;DHT22;4763;48.370;10.874;2022-10-16T05:39:08;12.70;99.90
9450;DHT22;4763;48.370;10.874;2022-10-16T05:41:53;12.70;99.90
9450;DHT22;4763;48.370;10.874;2022-10-16T05:44:56;12.70;99.90
9450;DHT22;4763;48.370;10.874;2022-10-16T05:47:38;12.70;99.90
9450;DHT22;4763;48.370;10.874;2022-10-16T05:50:13;12.70;99.90
9450;DHT22;4763;48.370;10.874;2022-10-16T05:52:54;12.70;99.90
9450;DHT22;4763;48.370;10.874;2022-10-16T05:55:37;12.60;99.90
9450;DHT22;4763;48.370;10.874;2022-10-16T05:58:11;12.60;99.90
9450;DHT22;4763;48.370;10.874;2022-10-16T06:00:44;12.60;99.90
9450;DHT22;4763;48.370;10.874;2022-10-16T06:03:15;12.60;99.90
9450;DHT22;4763;48.370;10.874;2022-10-16T06:05:45;12.60;99.90
9450;DHT22;4763;48.370;10.874;2022-10-16T06:08:20;12.60;99.90
9450;DHT22;4763;48.370;10.874;2022-10-16T06:11:09;12.70;99.90
9450;DHT22;4763;48.370;10.874;2022-10-16T06:13:41;12.80;99.90
9450;DHT22;4763;48.370;10.874;2022-10-16T06:16:19;12.90;99.90
9450;DHT22;4763;48.370;10.874;2022-10-16T06:18:55;12.90;99.90
9450;DHT22;4763;48.370;10.874;2022-10-16T06:21:29;12.90;99.90
9450;DHT22;4763;48.370;10.874;2022-10-16T06:24:07;12.90;99.90
9450;DHT22;4763;48.370;10.874;2022-10-16T06:26:41;12.90;99.90
9450;DHT22;4763;48.370;10.874;2022-10-16T06:29:25;13.00;99.90
9450;DHT22;4763;48.370;10.874;2022-10-16T06:32:17;13.00;99.90
9450;DHT22;4763;48.370;10.874;2022-10-16T06:34:44;13.10;99.90
9450;DHT22;4763;48.370;10.874;2022-10-16T06:37:13;13.20;99.90
9450;DHT22;4763;48.370;10.874;2022-10-16T06:39:52;13.30;99.90
9450;DHT22;4763;48.370;10.874;2022-10-16T06:42:21;13.40;99.90
9450;DHT22;4763;48.370;10.874;2022-10-16T06:44:48;13.50;99.90
9450;DHT22;4763;48.370;10.874;2022-10-16T06:47:16;13.50;99.90
9450;DHT22;4763;48.370;10.874;2022-10-16T06:49:43;13.50;99.90
9450;DHT22;4763;48.370;10.874;2022-10-16T06:52:10;13.60;99.90
9450;DHT22;4763;48.370;10.874;2022-10-16T06:54:37;13.60;99.90
9450;DHT22;4763;48.370;10.874;2022-10-16T06:57:04;13.70;99.90
9450;DHT22;4763;48.370;10.874;2022-10-16T06:59:31;13.70;99.90
9450;DHT22;4763;48.370;10.874;2022-10-16T07:01:58;13.80;99.90
9450;DHT22;4763;48.370;10.874;2022-10-16T07:04:26;13.80;99.90
9450;DHT22;4763;48.370;10.874;2022-10-16T07:06:53;13.80;99.90
9450;DHT22;4763;48.370;10.874;2022-10-16T07:09:20;13.80;99.90
9450;DHT22;4763;48.370;10.874;2022-10-16T07:11:46;13.90;99.90
9450;DHT22;4763;48.370;10.874;2022-10-16T07:14:15;14.00;99.90
9450;DHT22;4763;48.370;10.874;2022-10-16T07:16:43;14.20;99.90
9450;DHT22;4763;48.370;10.874;2022-10-16T07:19:10;14.30;99.90
9450;DHT22;4763;48.370;10.874;2022-10-16T07:21:41;14.50;99.90
9450;DHT22;4763;48.370;10.874;2022-10-16T07:24:12;14.50;99.90
9450;DHT22;4763;48.370;10.874;2022-10-16T07:26:39;14.70;99.90
9450;DHT22;4763;48.370;10.874;2022-10-16T07:29:09;14.80;99.90
9450;DHT22;4763;48.370;10.874;2022-10-16T07:31:38;14.90;99.90
9450;DHT22;4763;48.370;10.874;2022-10-16T07:34:05;14.90;99.90
9450;DHT22;4763;48.370;10.874;2022-10-16T07:36:32;15.00;99.90
9450;DHT22;4763;48.370;10.874;2022-10-16T07:39:00;15.10;99.90
9450;DHT22;4763;48.370;10.874;2022-10-16T07:41:27;15.20;99.90
9450;DHT22;4763;48.370;10.874;2022-10-16T07:43:55;15.20;99.90
9450;DHT22;4763;48.370;10.874;2022-10-16T07:46:26;15.30;99.90
9450;DHT22;4763;48.370;10.874;2022-10-16T07:48:53;15.40;99.90
9450;DHT22;4763;48.370;10.874;2022-10-16T07:51:21;15.50;99.90
9450;DHT22;4763;48.370;10.874;2022-10-16T07:53:48;15.60;99.90
9450;DHT22;4763;48.370;10.874;2022-10-16T07:56:17;15.70;99.90
9450;DHT22;4763;48.370;10.874;2022-10-16T07:58:46;15.90;99.90
9450;DHT22;4763;48.370;10.874;2022-10-16T08:01:16;16.00;99.90
9450;DHT22;4763;48.370;10.874;2022-10-16T08:03:44;16.10;99.90
9450;DHT22;4763;48.370;10.874;2022-10-16T08:06:10;16.30;99.90
9450;DHT22;4763;48.370;10.874;2022-10-16T08:08:37;16.40;99.90
9450;DHT22;4763;48.370;10.874;2022-10-16T08:11:04;16.50;99.90
9450;DHT22;4763;48.370;10.874;2022-10-16T08:13:32;16.70;99.90
9450;DHT22;4763;48.370;10.874;2022-10-16T08:15:59;16.80;99.90
9450;DHT22;4763;48.370;10.874;2022-10-16T08:18:26;16.80;99.90
9450;DHT22;4763;48.370;10.874;2022-10-16T08:20:57;16.80;99.90
9450;DHT22;4763;48.370;10.874;2022-10-16T08:23:25;16.80;99.90
9450;DHT22;4763;48.370;10.874;2022-10-16T08:25:52;16.70;99.90
9450;DHT22;4763;48.370;10.874;2022-10-16T08:28:19;16.80;99.90
9450;DHT22;4763;48.370;10.874;2022-10-16T08:30:48;16.80;99.90
9450;DHT22;4763;48.370;10.874;2022-10-16T08:33:14;17.00;99.90
9450;DHT22;4763;48.370;10.874;2022-10-16T08:35:41;17.40;99.90
9450;DHT22;4763;48.370;10.874;2022-10-16T08:38:09;17.80;99.90
9450;DHT22;4763;48.370;10.874;2022-10-16T08:40:37;18.10;99.90
9450;DHT22;4763;48.370;10.874;2022-10-16T08:43:18;18.40;99.90
9450;DHT22;4763;48.370;10.874;2022-10-16T08:46:11;18.70;99.90
9450;DHT22;4763;48.370;10.874;2022-10-16T08:48:44;19.00;99.90
9450;DHT22;4763;48.370;10.874;2022-10-16T08:51:18;19.20;99.90
9450;DHT22;4763;48.370;10.874;2022-10-16T08:53:49;19.60;99.90
9450;DHT22;4763;48.370;10.874;2022-10-16T08:56:17;19.80;99.90
9450;DHT22;4763;48.370;10.874;2022-10-16T08:58:46;20.00;99.90
9450;DHT22;4763;48.370;10.874;2022-10-16T09:01:16;20.20;99.90
9450;DHT22;4763;48.370;10.874;2022-10-16T09:04:00;20.50;99.90
9450;DHT22;4763;48.370;10.874;2022-10-16T09:06:50;20.70;99.90
9450;DHT22;4763;48.370;10.874;2022-10-16T09:09:41;20.70;99.90
9450;DHT22;4763;48.370;10.874;2022-10-16T09:12:19;20.70;99.90
9450;DHT22;4763;48.370;10.874;2022-10-16T09:15:03;20.80;99.90
9450;DHT22;4763;48.370;10.874;2022-10-16T09:17:44;21.00;99.90
9450;DHT22;4763;48.370;10.874;2022-10-16T09:20:36;21.10;99.90
9450;DHT22;4763;48.370;10.874;2022-10-16T09:23:17;21.50;99.90
9450;DHT22;4763;48.370;10.874;2022-10-16T09:25:47;21.50;99.90
9450;DHT22;4763;48.370;10.874;2022-10-16T09:28:15;21.80;99.90
9450;DHT22;4763;48.370;10.874;2022-10-16T09:30:43;21.90;99.90
9450;DHT22;4763;48.370;10.874;2022-10-16T09:33:12;21.90;99.90
9450;DHT22;4763;48.370;10.874;2022-10-16T09:35:41;22.00;99.90
9450;DHT22;4763;48.370;10.874;2022-10-16T09:38:15;22.00;99.90
9450;DHT22;4763;48.370;10.874;2022-10-16T09:40:46;21.90;99.90
9450;DHT22;4763;48.370;10.874;2022-10-16T09:43:20;21.90;99.90
9450;DHT22;4763;48.370;10.874;2022-10-16T09:45:56;21.80;99.90
9450;DHT22;4763;48.370;10.874;2022-10-16T09:48:26;21.80;99.90
9450;DHT22;4763;48.370;10.874;2022-10-16T09:50:59;21.80;99.90
9450;DHT22;4763;48.370;10.874;2022-10-16T09:53:39;21.90;99.90
9450;DHT22;4763;48.370;10.874;2022-10-16T09:56:06;22.00;99.90
9450;DHT22;4763;48.370;10.874;2022-10-16T09:58:33;21.90;99.90
9450;DHT22;4763;48.370;10.874;2022-10-16T10:01:00;21.90;99.90
9450;DHT22;4763;48.370;10.874;2022-10-16T10:03:46;21.80;99.90
9450;DHT22;4763;48.370;10.874;2022-10-16T10:06:18;21.80;99.90
9450;DHT22;4763;48.370;10.874;2022-10-16T10:08:56;21.90;99.90
9450;DHT22;4763;48.370;10.874;2022-10-16T10:11:41;21.80;99.90
9450;DHT22;4763;48.370;10.874;2022-10-16T10:14:17;21.80;99.90
9450;DHT22;4763;48.370;10.874;2022-10-16T10:16:44;21.70;99.90
9450;DHT22;4763;48.370;10.874;2022-10-16T10:19:16;21.70;99.90
9450;DHT22;4763;48.370;10.874;2022-10-16T10:21:42;21.80;99.90
9450;DHT22;4763;48.370;10.874;2022-10-16T10:24:11;21.80;99.90
9450;DHT22;4763;48.370;10.874;2022-10-16T10:26:40;21.80;99.90
9450;DHT22;4763;48.370;10.874;2022-10-16T10:29:20;21.80;99.90
9450;DHT22;4763;48.370;10.874;2022-10-16T10:31:58;21.80;99.90
9450;DHT22;4763;48.370;10.874;2022-10-16T10:34:47;21.90;99.90
9450;DHT22;4763;48.370;10.874;2022-10-16T10:37:27;21.90;99.90
9450;DHT22;4763;48.370;10.874;2022-10-16T10:40:04;22.00;99.90
9450;DHT22;4763;48.370;10.874;2022-10-16T10:42:38;22.10;99.90
9450;DHT22;4763;48.370;10.874;2022-10-16T10:45:17;22.20;99.90
9450;DHT22;4763;48.370;10.874;2022-10-16T10:47:52;22.30;99.90
9450;DHT22;4763;48.370;10.874;2022-10-16T10:50:26;22.40;99.90
9450;DHT22;4763;48.370;10.874;2022-10-16T10:53:00;22.40;99.90
9450;DHT22;4763;48.370;10.874;2022-10-16T10:55:37;22.50;99.90
9450;DHT22;4763;48.370;10.874;2022-10-16T10:58:24;22.70;99.90
9450;DHT22;4763;48.370;10.874;2022-10-16T11:00:57;22.80;99.90
9450;DHT22;4763;48.370;10.874;2022-10-16T11:03:35;22.80;99.90
9450;DHT22;4763;48.370;10.874;2022-10-16T11:06:11;22.80;99.90
9450;DHT22;4763;48.370;10.874;2022-10-16T11:08:42;22.80;99.90
9450;DHT22;4763;48.370;10.874;2022-10-16T11:11:11;22.90;99.90
9450;DHT22;4763;48.370;10.874;2022-10-16T11:13:46;23.00;99.90
9450;DHT22;4763;48.370;10.874;2022-10-16T11:16:21;23.00;99.90
9450;DHT22;4763;48.370;10.874;2022-10-16T11:18:53;23.10;99.90
9450;DHT22;4763;48.370;10.874;2022-10-16T11:21:24;23.30;99.90
9450;DHT22;4763;48.370;10.874;2022-10-16T11:23:53;23.50;99.90
9450;DHT22;4763;48.370;10.874;2022-10-16T11:26:26;23.30;99.90
9450;DHT22;4763;48.370;10.874;2022-10-16T11:28:55;23.20;99.90
9450;DHT22;4763;48.370;10.874;2022-10-16T11:31:28;23.30;99.90
9450;DHT22;4763;48.370;10.874;2022-10-16T11:34:02;23.30;99.90
9450;DHT22;4763;48.370;10.874;2022-10-16T11:36:36;23.30;99.90
9450;DHT22;4763;48.370;10.874;2022-10-16T11:39:16;23.30;99.90
9450;DHT22;4763;48.370;10.874;2022-10-16T11:41:48;23.20;99.90
9450;DHT22;4763;48.370;10.874;2022-10-16T11:44:36;23.20;99.90
9450;DHT22;4763;48.370;10.874;2022-10-16T11:47:12;23.40;99.90
9450;DHT22;4763;48.370;10.874;2022-10-16T11:49:41;23.30;99.90
9450;DHT22;4763;48.370;10.874;2022-10-16T11:52:16;23.40;99.90
9450;DHT22;4763;48.370;10.874;2022-10-16T11:54:49;23.40;99.90
9450;DHT22;4763;48.370;10.874;2022-10-16T11:57:19;23.50;99.90
9450;DHT22;4763;48.370;10.874;2022-10-16T11:59:48;23.50;99.90
9450;DHT22;4763;48.370;10.874;2022-10-16T12:02:33;23.50;99.90
9450;DHT22;4763;48.370;10.874;2022-10-16T12:05:15;23.50;99.90
9450;DHT22;4763;48.370;10.874;2022-10-16T12:07:50;23.60;99.90
9450;DHT22;4763;48.370;10.874;2022-10-16T12:10:21;23.80;99.90
9450;DHT22;4763;48.370;10.874;2022-10-16T12:12:48;24.10;99.90
9450;DHT22;4763;48.370;10.874;2022-10-16T12:15:21;24.60;99.90
9450;DHT22;4763;48.370;10.874;2022-10-16T12:17:48;24.80;99.90
9450;DHT22;4763;48.370;10.874;2022-10-16T12:20:24;25.10;99.90
9450;DHT22;4763;48.370;10.874;2022-10-16T12:22:54;25.40;99.90
9450;DHT22;4763;48.370;10.874;2022-10-16T12:25:24;25.20;99.90
9450;DHT22;4763;48.370;10.874;2022-10-16T12:27:59;25.30;99.90
9450;DHT22;4763;48.370;10.874;2022-10-16T12:30:28;25.20;99.90
9450;DHT22;4763;48.370;10.874;2022-10-16T12:32:57;25.30;99.90
9450;DHT22;4763;48.370;10.874;2022-10-16T12:35:27;25.50;99.90
9450;DHT22;4763;48.370;10.874;2022-10-16T12:38:05;25.90;99.90
9450;DHT22;4763;48.370;10.874;2022-10-16T12:40:34;26.20;99.90
9450;DHT22;4763;48.370;10.874;2022-10-16T12:43:13;25.90;99.90
9450;DHT22;4763;48.370;10.874;2022-10-16T12:45:59;25.70;99.90
9450;DHT22;4763;48.370;10.874;2022-10-16T12:48:26;25.60;99.90
9450;DHT22;4763;48.370;10.874;2022-10-16T12:50:53;25.40;99.90
9450;DHT22;4763;48.370;10.874;2022-10-16T12:53:23;25.50;99.90
9450;DHT22;4763;48.370;10.874;2022-10-16T12:55:58;25.30;99.90
9450;DHT22;4763;48.370;10.874;2022-10-16T12:58:39;25.60;99.90
9450;DHT22;4763;48.370;10.874;2022-10-16T13:01:17;25.60;99.90
9450;DHT22;4763;48.370;10.874;2022-10-16T13:07:04;25.60;99.90
9450;DHT22;4763;48.370;10.874;2022-10-16T13:09:49;25.90;99.90
9450;DHT22;4763;48.370;10.874;2022-10-16T13:12:45;26.10;99.90
9450;DHT22;4763;48.370;10.874;2022-10-16T13:15:25;26.20;99.90
9450;DHT22;4763;48.370;10.874;2022-10-16T13:17:58;26.30;99.90
9450;DHT22;4763;48.370;10.874;2022-10-16T13:20:31;26.50;99.90
9450;DHT22;4763;48.370;10.874;2022-10-16T13:23:05;26.60;99.90
9450;DHT22;4763;48.370;10.874;2022-10-16T13:25:47;26.60;99.90
9450;DHT22;4763;48.370;10.874;2022-10-16T13:28:19;26.80;99.90
9450;DHT22;4763;48.370;10.874;2022-10-16T13:30:52;26.70;99.90
9450;DHT22;4763;48.370;10.874;2022-10-16T13:33:23;26.80;99.90
9450;DHT22;4763;48.370;10.874;2022-10-16T13:35:53;26.60;99.90
9450;DHT22;4763;48.370;10.874;2022-10-16T13:38:22;26.60;99.90
9450;DHT22;4763;48.370;10.874;2022-10-16T13:40:54;26.50;99.90
9450;DHT22;4763;48.370;10.874;2022-10-16T13:43:24;26.50;99.90
9450;DHT22;4763;48.370;10.874;2022-10-16T13:45:54;26.60;99.90
9450;DHT22;4763;48.370;10.874;2022-10-16T13:48:21;26.80;99.90
9450;DHT22;4763;48.370;10.874;2022-10-16T13:51:02;26.90;99.90
9450;DHT22;4763;48.370;10.874;2022-10-16T13:53:31;27.00;99.90
9450;DHT22;4763;48.370;10.874;2022-10-16T13:55:59;26.90;99.90
9450;DHT22;4763;48.370;10.874;2022-10-16T13:58:27;27.00;99.90
9450;DHT22;4763;48.370;10.874;2022-10-16T14:00:56;26.90;99.90
9450;DHT22;4763;48.370;10.874;2022-10-16T14:03:24;27.10;99.90
9450;DHT22;4763;48.370;10.874;2022-10-16T14:05:52;26.90;99.90
9450;DHT22;4763;48.370;10.874;2022-10-16T14:08:20;27.00;99.90
9450;DHT22;4763;48.370;10.874;2022-10-16T14:10:49;26.90;99.90
9450;DHT22;4763;48.370;10.874;2022-10-16T14:13:19;26.80;99.90
9450;DHT22;4763;48.370;10.874;2022-10-16T14:15:47;26.80;99.90
9450;DHT22;4763;48.370;10.874;2022-10-16T14:18:19;26.60;99.90
9450;DHT22;4763;48.370;10.874;2022-10-16T14:20:46;26.20;99.90
9450;DHT22;4763;48.370;10.874;2022-10-16T14:23:23;26.10;99.90
9450;DHT22;4763;48.370;10.874;2022-10-16T14:25:51;26.10;99.90
9450;DHT22;4763;48.370;10.874;2022-10-16T14:28:22;26.20;99.90
9450;DHT22;4763;48.370;10.874;2022-10-16T14:30:51;26.10;99.90
9450;DHT22;4763;48.370;10.874;2022-10-16T14:33:21;25.90;99.90
9450;DHT22;4763;48.370;10.874;2022-10-16T14:36:00;25.90;99.90
9450;DHT22;4763;48.370;10.874;2022-10-16T14:38:28;25.90;99.90
9450;DHT22;4763;48.370;10.874;2022-10-16T14:40:57;25.90;99.90
9450;DHT22;4763;48.370;10.874;2022-10-16T14:43:31;25.80;99.90
9450;DHT22;4763;48.370;10.874;2022-10-16T14:45:59;25.70;99.90
9450;DHT22;4763;48.370;10.874;2022-10-16T14:48:26;25.70;99.90
9450;DHT22;4763;48.370;10.874;2022-10-16T14:50:53;25.90;99.90
9450;DHT22;4763;48.370;10.874;2022-10-16T14:53:20;25.90;99.90
9450;DHT22;4763;48.370;10.874;2022-10-16T14:55:47;26.20;99.90
9450;DHT22;4763;48.370;10.874;2022-10-16T14:58:15;26.30;99.90
9450;DHT22;4763;48.370;10.874;2022-10-16T15:00:44;25.90;99.90
9450;DHT22;4763;48.370;10.874;2022-10-16T15:03:11;25.80;99.90
9450;DHT22;4763;48.370;10.874;2022-10-16T15:05:37;25.30;99.90
9450;DHT22;4763;48.370;10.874;2022-10-16T15:08:04;24.80;99.90
9450;DHT22;4763;48.370;10.874;2022-10-16T15:10:35;24.40;99.90
9450;DHT22;4763;48.370;10.874;2022-10-16T15:13:04;24.10;99.90
9450;DHT22;4763;48.370;10.874;2022-10-16T15:15:34;23.80;99.90
9450;DHT22;4763;48.370;10.874;2022-10-16T15:18:03;23.60;99.90
9450;DHT22;4763;48.370;10.874;2022-10-16T15:20:32;23.40;99.90
9450;DHT22;4763;48.370;10.874;2022-10-16T15:23:00;23.20;99.90
9450;DHT22;4763;48.370;10.874;2022-10-16T15:25:33;22.90;99.90
9450;DHT22;4763;48.370;10.874;2022-10-16T15:28:01;22.70;99.90
9450;DHT22;4763;48.370;10.874;2022-10-16T15:30:28;22.60;99.90
9450;DHT22;4763;48.370;10.874;2022-10-16T15:32:56;22.50;99.90
9450;DHT22;4763;48.370;10.874;2022-10-16T15:35:24;22.30;99.90
9450;DHT22;4763;48.370;10.874;2022-10-16T15:37:51;22.10;99.90
9450;DHT22;4763;48.370;10.874;2022-10-16T15:40:18;22.00;99.90
9450;DHT22;4763;48.370;10.874;2022-10-16T15:42:46;21.90;99.90
9450;DHT22;4763;48.370;10.874;2022-10-16T15:45:14;21.80;99.90
9450;DHT22;4763;48.370;10.874;2022-10-16T15:47:42;21.60;99.90
9450;DHT22;4763;48.370;10.874;2022-10-16T15:50:10;21.50;99.90
9450;DHT22;4763;48.370;10.874;2022-10-16T15:52:39;21.40;99.90
9450;DHT22;4763;48.370;10.874;2022-10-16T15:55:07;21.10;99.90
9450;DHT22;4763;48.370;10.874;2022-10-16T15:57:34;21.10;99.90
9450;DHT22;4763;48.370;10.874;2022-10-16T16:00:05;20.90;99.90
9450;DHT22;4763;48.370;10.874;2022-10-16T16:02:32;20.80;99.90
9450;DHT22;4763;48.370;10.874;2022-10-16T16:04:59;20.60;99.90
9450;DHT22;4763;48.370;10.874;2022-10-16T16:07:25;20.50;99.90
9450;DHT22;4763;48.370;10.874;2022-10-16T16:09:54;20.40;99.90
9450;DHT22;4763;48.370;10.874;2022-10-16T16:12:21;20.30;99.90
9450;DHT22;4763;48.370;10.874;2022-10-16T16:14:47;20.20;99.90
9450;DHT22;4763;48.370;10.874;2022-10-16T16:17:14;20.00;99.90
9450;DHT22;4763;48.370;10.874;2022-10-16T16:19:41;19.90;99.90
9450;DHT22;4763;48.370;10.874;2022-10-16T16:22:08;19.80;99.90
9450;DHT22;4763;48.370;10.874;2022-10-16T16:24:34;19.70;99.90
9450;DHT22;4763;48.370;10.874;2022-10-16T16:27:03;19.60;99.90